Time;durP1;ratioP1;P1;durP2;ratioP2;P2;SDS_P1;SDS_P2;PMS_P1;PMS_P2;Temp;Humidity;BMP_temperature;BMP_pressure;BME280_temperature;BME280_humidity;BME280_pressure;Samples;Min_cycle;Max_cycle;Signal;HPM_P1;HPM_P2
2023/04/05 00:01:52;;;;;;;5.13;0.88;;;20.60;99.90;;;;;;4998640;28;20200;-90
2023/04/05 00:04:24;;;;;;;4.65;0.80;;;20.50;99.90;;;;;;4999636;28;20246;-92
2023/04/05 00:06:56;;;;;;;4.25;0.77;;;20.50;99.90;;;;;;4994167;28;20192;-93
2023/04/05 00:09:27;;;;;;;3.67;0.65;;;20.50;99.90;;;;;;4996002;28;20199;-92
2023/04/05 00:11:58;;;;;;;5.97;1.02;;;20.60;99.90;;;;;;4995779;28;20242;-92
2023/04/05 00:14:31;;;;;;;3.05;0.65;;;20.60;99.90;;;;;;4987822;28;20195;-93
2023/04/05 00:17:03;;;;;;;4.53;0.80;;;20.60;99.90;;;;;;4992249;28;20196;-92
2023/04/05 00:19:35;;;;;;;5.55;0.90;;;20.70;99.90;;;;;;4990024;28;20307;-93
2023/04/05 00:22:09;;;;;;;5.47;1.02;;;20.70;99.90;;;;;;4996610;28;20213;-93
2023/04/05 00:24:42;;;;;;;3.35;0.80;;;20.90;99.90;;;;;;4997455;28;20554;-93
2023/04/05 00:27:13;;;;;;;4.03;0.80;;;21.00;99.90;;;;;;4995781;28;20666;-92
2023/04/05 00:29:46;;;;;;;4.10;0.70;;;21.00;99.90;;;;;;4997206;28;20564;-90
2023/04/05 00:32:17;;;;;;;4.47;0.80;;;21.00;99.90;;;;;;4993672;28;20239;-84
2023/04/05 00:34:48;;;;;;;4.90;1.10;;;21.10;99.90;;;;;;4996354;28;20191;-91
2023/04/05 00:37:19;;;;;;;5.03;0.75;;;21.00;99.90;;;;;;4981682;28;20205;-91
2023/04/05 00:39:52;;;;;;;5.60;0.95;;;21.10;99.90;;;;;;4992709;28;20721;-86
2023/04/05 00:42:23;;;;;;;5.97;1.02;;;21.10;99.90;;;;;;4989159;28;20199;-87
2023/04/05 00:44:56;;;;;;;7.57;1.33;;;21.30;99.90;;;;;;4992671;28;20196;-90
2023/04/05 00:47:28;;;;;;;3.55;1.00;;;21.50;99.90;;;;;;4993926;28;20195;-90
2023/04/05 00:49:59;;;;;;;7.45;1.45;;;21.80;99.90;;;;;;4986248;28;20228;-84
2023/04/05 00:52:31;;;;;;;3.95;0.93;;;22.00;99.90;;;;;;4990275;28;20265;-89
2023/04/05 00:55:02;;;;;;;8.00;0.80;;;22.00;99.90;;;;;;4986507;28;20204;-87
2023/04/05 00:57:33;;;;;;;5.97;0.80;;;22.10;99.90;;;;;;4991424;28;20675;-90
2023/04/05 01:00:08;;;;;;;2.58;0.57;;;22.10;99.90;;;;;;4976497;28;20227;-87
2023/04/05 01:02:44;;;;;;;3.63;0.60;;;22.10;99.90;;;;;;4982824;28;20230;-91
2023/04/05 01:05:37;;;;;;;6.22;0.70;;;22.20;99.90;;;;;;4990965;28;20223;-87
2023/04/05 01:08:23;;;;;;;3.25;0.70;;;22.10;99.90;;;;;;4995443;28;20195;-91
2023/04/05 01:11:00;;;;;;;3.40;0.88;;;22.10;99.90;;;;;;4988399;28;20199;-85
2023/04/05 01:13:34;;;;;;;3.45;0.50;;;22.10;99.90;;;;;;4990833;28;20200;-90
2023/04/05 01:16:07;;;;;;;2.70;0.45;;;22.20;99.90;;;;;;4986645;28;20208;-89
2023/04/05 01:18:39;;;;;;;2.95;0.43;;;22.40;99.90;;;;;;4995053;28;20210;-92
2023/04/05 01:21:28;;;;;;;3.83;0.60;;;22.40;99.90;;;;;;4990014;28;20228;-90
2023/04/05 01:24:08;;;;;;;1.85;0.50;;;22.60;99.90;;;;;;4993128;28;20195;-89
2023/04/05 01:26:59;;;;;;;2.60;0.60;;;22.90;99.90;;;;;;4995064;28;20192;-89
2023/04/05 01:29:58;;;;;;;3.05;0.60;;;23.00;99.90;;;;;;4985394;28;20207;-91
2023/04/05 01:32:45;;;;;;;2.80;0.60;;;23.20;99.90;;;;;;4995069;28;20643;-92
2023/04/05 01:35:23;;;;;;;3.42;0.60;;;23.20;99.90;;;;;;4995238;28;20200;-89
2023/04/05 01:38:01;;;;;;;2.58;0.40;;;23.50;99.90;;;;;;4992678;28;20201;-90
2023/04/05 01:40:33;;;;;;;2.40;0.43;;;23.60;99.90;;;;;;4994809;28;20215;-92
2023/04/05 01:43:05;;;;;;;3.20;0.50;;;23.60;99.90;;;;;;4995290;28;20203;-90
2023/04/05 01:45:38;;;;;;;4.38;0.60;;;23.40;99.90;;;;;;4995688;28;20525;-91
2023/04/05 01:48:09;;;;;;;2.10;0.60;;;23.20;99.90;;;;;;4995014;28;20595;-81
2023/04/05 01:50:40;;;;;;;1.40;0.40;;;23.10;99.90;;;;;;4994784;28;20196;-89
2023/04/05 01:53:11;;;;;;;2.70;0.60;;;23.00;99.90;;;;;;4995824;28;20191;-93
2023/04/05 01:55:42;;;;;;;6.32;0.70;;;23.00;99.90;;;;;;4995611;28;20202;-92
2023/04/05 01:58:13;;;;;;;5.70;0.60;;;22.90;99.90;;;;;;4996235;28;20215;-91
2023/04/05 02:00:46;;;;;;;2.75;0.60;;;22.80;99.90;;;;;;4995674;28;20219;-87
2023/04/05 02:03:17;;;;;;;3.80;0.45;;;22.70;99.90;;;;;;4994931;28;20802;-91
2023/04/05 02:05:49;;;;;;;2.13;0.30;;;22.70;99.90;;;;;;4995236;28;20678;-91
2023/04/05 02:08:20;;;;;;;2.25;0.50;;;22.70;99.90;;;;;;4994527;28;20620;-92
2023/04/05 02:10:51;;;;;;;1.67;0.40;;;22.70;99.90;;;;;;4994892;28;20199;-90
2023/04/05 02:13:24;;;;;;;1.77;0.50;;;22.70;99.90;;;;;;4995886;28;20561;-90
2023/04/05 02:15:57;;;;;;;3.72;0.50;;;22.70;99.90;;;;;;4995096;28;20192;-89
2023/04/05 02:18:31;;;;;;;2.85;0.50;;;22.70;99.90;;;;;;4994481;28;20202;-90
2023/04/05 02:21:06;;;;;;;5.55;1.00;;;22.70;99.90;;;;;;4994488;28;20216;-90
2023/04/05 02:23:38;;;;;;;3.00;0.50;;;22.70;99.90;;;;;;4994632;28;20282;-90
2023/04/05 02:26:09;;;;;;;1.73;0.50;;;22.70;99.90;;;;;;4995314;28;20702;-91
2023/04/05 02:28:40;;;;;;;1.33;0.30;;;22.70;99.90;;;;;;4995468;28;20662;-90
2023/04/05 02:31:17;;;;;;;2.67;0.52;;;22.70;99.90;;;;;;4995442;28;20195;-91
2023/04/05 02:33:48;;;;;;;1.38;0.30;;;22.70;99.90;;;;;;4995116;28;20199;-90
2023/04/05 02:36:20;;;;;;;3.92;0.50;;;22.70;99.90;;;;;;4995411;28;20195;-91
2023/04/05 02:38:52;;;;;;;2.00;0.40;;;22.70;99.90;;;;;;4995514;28;20200;-87
2023/04/05 02:41:23;;;;;;;3.10;0.38;;;22.70;99.90;;;;;;4994071;28;20203;-92
2023/04/05 02:43:54;;;;;;;0.55;0.20;;;22.70;99.90;;;;;;4994871;28;20196;-85
2023/04/05 02:46:27;;;;;;;2.97;0.50;;;22.60;99.90;;;;;;4995143;28;20192;-92
2023/04/05 02:48:58;;;;;;;2.05;0.30;;;22.60;99.90;;;;;;4994463;28;20227;-91
2023/04/05 02:51:29;;;;;;;2.85;0.40;;;22.60;99.90;;;;;;4994906;28;20188;-92
2023/04/05 02:53:59;;;;;;;3.00;0.30;;;22.60;99.90;;;;;;4988867;28;20246;-91
2023/04/05 02:56:31;;;;;;;2.28;0.40;;;22.60;99.90;;;;;;4974935;28;20714;-91
2023/04/05 02:59:02;;;;;;;2.53;0.45;;;22.70;99.90;;;;;;4981348;28;20196;-91
2023/04/05 03:01:35;;;;;;;1.73;0.40;;;22.80;99.90;;;;;;4996830;28;20191;-92
2023/04/05 03:04:06;;;;;;;3.28;0.50;;;23.00;99.90;;;;;;4998775;28;20199;-93
2023/04/05 03:06:37;;;;;;;4.85;0.60;;;23.20;99.90;;;;;;4998571;28;20196;-91
2023/04/05 03:09:08;;;;;;;3.65;1.02;;;23.30;99.90;;;;;;4999482;28;20202;-92
2023/04/05 03:11:38;;;;;;;2.97;0.60;;;23.50;99.90;;;;;;4998898;28;20648;-92
2023/04/05 03:14:10;;;;;;;3.35;0.70;;;23.60;99.90;;;;;;4999113;28;20628;-93
2023/04/05 03:16:43;;;;;;;3.38;0.70;;;23.70;99.90;;;;;;4998550;28;20242;-90
2023/04/05 03:19:15;;;;;;;3.45;0.60;;;23.70;99.90;;;;;;4999833;28;20202;-87
2023/04/05 03:21:47;;;;;;;5.25;0.75;;;23.70;99.90;;;;;;5000348;28;20192;-91
2023/04/05 03:24:18;;;;;;;3.50;0.50;;;23.70;99.90;;;;;;4999260;28;20204;-89
2023/04/05 03:26:49;;;;;;;4.55;0.80;;;23.70;99.90;;;;;;4998812;28;20192;-89
2023/04/05 03:29:21;;;;;;;6.10;0.60;;;23.80;99.90;;;;;;4998805;28;20191;-90
2023/04/05 03:31:54;;;;;;;5.45;0.88;;;23.90;99.90;;;;;;4999630;28;20208;-89
2023/04/05 03:34:27;;;;;;;5.80;0.60;;;23.90;99.90;;;;;;4998408;28;20191;-89
2023/04/05 03:36:58;;;;;;;4.57;0.60;;;23.90;99.90;;;;;;4998439;28;20201;-91
2023/04/05 03:39:31;;;;;;;3.97;0.55;;;23.90;99.90;;;;;;4999482;28;20292;-91
2023/04/05 03:42:03;;;;;;;4.97;0.60;;;23.90;99.90;;;;;;4981626;28;20216;-92
2023/04/05 03:44:36;;;;;;;4.28;0.88;;;24.00;99.90;;;;;;4979490;28;20196;-88
2023/04/05 03:47:12;;;;;;;3.70;0.50;;;24.00;99.90;;;;;;4978653;28;20200;-89
2023/04/05 03:49:43;;;;;;;5.43;0.82;;;24.00;99.90;;;;;;4979819;28;20367;-88
2023/04/05 03:52:14;;;;;;;3.67;0.70;;;24.00;99.90;;;;;;4980238;28;20196;-93
2023/04/05 03:54:45;;;;;;;3.78;0.50;;;24.00;99.90;;;;;;4980047;28;20196;-92
2023/04/05 03:57:16;;;;;;;5.25;0.70;;;24.00;99.90;;;;;;4986532;28;20211;-90
2023/04/05 03:59:47;;;;;;;2.63;0.60;;;24.00;99.90;;;;;;4998190;28;20281;-91
2023/04/05 04:02:20;;;;;;;2.15;0.50;;;24.10;99.90;;;;;;4997550;28;20239;-91
2023/04/05 04:04:52;;;;;;;5.78;0.88;;;24.00;99.90;;;;;;4998386;28;20192;-91
2023/04/05 04:07:26;;;;;;;4.35;0.90;;;23.90;99.90;;;;;;4997852;28;20231;-89
2023/04/05 04:09:57;;;;;;;4.43;0.60;;;24.00;99.90;;;;;;4996854;28;20208;-91
2023/04/05 04:12:28;;;;;;;2.90;0.70;;;24.00;99.90;;;;;;4996140;28;20199;-86
2023/04/05 04:14:59;;;;;;;4.22;0.95;;;24.00;99.90;;;;;;4996333;28;20199;-91
2023/04/05 04:17:33;;;;;;;3.13;0.60;;;24.00;99.90;;;;;;4997065;28;20191;-91
2023/04/05 04:20:09;;;;;;;1.92;0.60;;;23.90;99.90;;;;;;4995050;28;20211;-86
2023/04/05 04:22:41;;;;;;;3.08;0.65;;;23.90;99.90;;;;;;4987060;28;20246;-87
2023/04/05 04:25:15;;;;;;;7.75;0.90;;;23.90;99.90;;;;;;4995672;28;20200;-86
2023/04/05 04:27:47;;;;;;;2.97;0.70;;;23.90;99.90;;;;;;4995381;28;20195;-88
2023/04/05 04:30:21;;;;;;;14.82;1.98;;;23.90;99.90;;;;;;4978851;28;20207;-86
2023/04/05 04:32:54;;;;;;;4.80;0.52;;;23.90;99.90;;;;;;4988601;28;20202;-87
2023/04/05 04:35:26;;;;;;;2.72;0.50;;;23.80;99.90;;;;;;4993837;28;20206;-85
2023/04/05 04:38:01;;;;;;;4.60;0.70;;;23.70;99.90;;;;;;4994921;28;20588;-84
2023/04/05 04:40:37;;;;;;;2.45;0.68;;;23.70;99.90;;;;;;4976885;28;20579;-83
2023/04/05 04:43:13;;;;;;;3.00;0.40;;;23.70;99.90;;;;;;4976522;28;20203;-89
2023/04/05 04:45:46;;;;;;;3.28;0.75;;;23.60;99.90;;;;;;4977785;28;20632;-86
2023/04/05 04:48:20;;;;;;;4.25;0.60;;;23.60;99.90;;;;;;4976884;28;20228;-85
2023/04/05 04:50:54;;;;;;;2.67;0.70;;;23.60;99.90;;;;;;4995642;28;20196;-87
2023/04/05 04:53:25;;;;;;;2.67;0.75;;;23.60;99.90;;;;;;4995205;28;20206;-82
2023/04/05 04:55:58;;;;;;;4.53;0.98;;;23.60;99.90;;;;;;4994505;28;20202;-86
2023/04/05 04:58:29;;;;;;;3.25;0.55;;;23.50;99.90;;;;;;4994920;28;20678;-85
2023/04/05 05:01:01;;;;;;;4.88;0.60;;;23.60;99.90;;;;;;4980207;28;20231;-81
2023/04/05 05:03:36;;;;;;;3.30;0.60;;;23.50;99.90;;;;;;4992503;28;20231;-83
2023/04/05 05:06:07;;;;;;;5.32;0.50;;;23.40;99.90;;;;;;4994587;28;20253;-85
2023/04/05 05:08:39;;;;;;;4.53;0.70;;;23.40;99.90;;;;;;4975969;28;20204;-89
2023/04/05 05:11:10;;;;;;;3.95;0.70;;;23.40;99.90;;;;;;4976848;28;20204;-86
2023/04/05 05:13:41;;;;;;;6.70;0.60;;;23.40;99.90;;;;;;4975790;28;20212;-81
2023/04/05 05:16:13;;;;;;;2.05;0.57;;;23.40;99.90;;;;;;4993138;28;20702;-84
2023/04/05 05:18:46;;;;;;;2.80;0.60;;;23.30;99.90;;;;;;4984918;28;20200;-82
2023/04/05 05:21:18;;;;;;;4.07;0.80;;;23.30;99.90;;;;;;4978964;28;20555;-85
2023/04/05 05:23:49;;;;;;;4.07;0.70;;;23.30;99.90;;;;;;4978402;28;20652;-85
2023/04/05 05:26:20;;;;;;;2.78;0.80;;;23.30;99.90;;;;;;4979009;28;20191;-81
2023/04/05 05:28:51;;;;;;;5.13;0.70;;;23.30;99.90;;;;;;4989184;28;20576;-83
2023/04/05 05:31:22;;;;;;;5.53;0.82;;;23.30;99.90;;;;;;4993106;28;20674;-85
2023/04/05 05:33:55;;;;;;;1.90;0.70;;;23.30;99.90;;;;;;4982406;28;20192;-86
2023/04/05 05:36:27;;;;;;;5.13;0.50;;;23.20;99.90;;;;;;4993819;28;20204;-83
2023/04/05 05:38:58;;;;;;;4.15;0.70;;;23.20;99.90;;;;;;4993941;28;20655;-85
2023/04/05 05:41:29;;;;;;;4.95;0.80;;;23.10;99.90;;;;;;4994461;28;20682;-87
2023/04/05 05:44:00;;;;;;;3.53;0.68;;;23.20;99.90;;;;;;4987440;28;20207;-81
2023/04/05 05:46:31;;;;;;;4.03;0.90;;;23.10;99.90;;;;;;4982759;28;20200;-83
2023/04/05 05:49:04;;;;;;;5.50;1.10;;;23.10;99.90;;;;;;4994111;28;20234;-86
2023/04/05 05:51:35;;;;;;;2.20;0.60;;;23.10;99.90;;;;;;4994337;28;20192;-84
2023/04/05 05:54:06;;;;;;;3.88;0.80;;;23.00;99.90;;;;;;4994245;28;20196;-85
2023/04/05 05:56:37;;;;;;;4.40;1.00;;;23.00;99.90;;;;;;4991971;28;20206;-85
2023/04/05 05:59:08;;;;;;;2.38;0.63;;;23.00;99.90;;;;;;4989676;28;20195;-80
2023/04/05 06:01:41;;;;;;;2.30;0.55;;;23.00;99.90;;;;;;4994027;28;20215;-80
2023/04/05 06:04:15;;;;;;;5.00;0.57;;;23.00;99.90;;;;;;4993437;28;20256;-86
2023/04/05 06:06:46;;;;;;;4.03;0.65;;;23.00;99.90;;;;;;4994174;28;20207;-86
2023/04/05 06:09:17;;;;;;;5.88;1.00;;;22.90;99.90;;;;;;4993867;28;20601;-86
2023/04/05 06:11:48;;;;;;;4.88;0.65;;;22.90;99.90;;;;;;4994036;28;20199;-87
2023/04/05 06:14:19;;;;;;;3.50;0.73;;;22.90;99.90;;;;;;4990354;28;20188;-82
2023/04/05 06:16:50;;;;;;;3.15;0.70;;;22.90;99.90;;;;;;4982300;28;20196;-85
2023/04/05 06:19:24;;;;;;;4.10;1.20;;;22.80;99.90;;;;;;4986224;28;20208;-85
2023/04/05 06:21:55;;;;;;;5.10;1.15;;;22.70;99.90;;;;;;4976848;28;20223;-80
2023/04/05 06:24:26;;;;;;;6.18;1.05;;;22.70;99.90;;;;;;4993753;28;20196;-84
2023/04/05 06:27:00;;;;;;;2.55;0.50;;;22.70;99.90;;;;;;4991001;28;20280;-85
2023/04/05 06:29:34;;;;;;;3.03;0.60;;;22.70;99.90;;;;;;5000453;28;20321;-86
2023/04/05 06:32:05;;;;;;;1.48;0.50;;;22.70;99.90;;;;;;5013645;28;20206;-81
2023/04/05 06:34:38;;;;;;;4.82;0.80;;;22.60;99.90;;;;;;5013597;28;20187;-80
2023/04/05 06:37:09;;;;;;;4.00;0.80;;;22.60;99.90;;;;;;5016327;28;20187;-86
2023/04/05 06:39:40;;;;;;;5.53;0.85;;;22.70;99.90;;;;;;5017442;28;20198;-83
2023/04/05 06:42:11;;;;;;;4.97;0.88;;;22.70;99.90;;;;;;5007148;28;20211;-84
2023/04/05 06:44:42;;;;;;;3.22;0.85;;;22.60;99.90;;;;;;4998251;28;20196;-86
2023/04/05 06:47:13;;;;;;;4.68;0.88;;;22.60;99.90;;;;;;5017438;28;20187;-83
2023/04/05 06:49:46;;;;;;;4.10;0.77;;;22.60;99.90;;;;;;5000778;28;20231;-87
2023/04/05 06:52:17;;;;;;;3.85;0.73;;;22.60;99.90;;;;;;4996864;28;20232;-82
2023/04/05 06:54:48;;;;;;;2.58;0.57;;;22.60;99.90;;;;;;4997713;28;20188;-85
2023/04/05 06:57:19;;;;;;;3.60;0.80;;;22.50;99.90;;;;;;4980237;28;20192;-80
2023/04/05 06:59:51;;;;;;;4.47;0.80;;;22.50;99.90;;;;;;4987798;28;20195;-84
2023/04/05 07:02:22;;;;;;;4.28;0.77;;;22.40;99.90;;;;;;4995642;28;20724;-84
2023/04/05 07:04:59;;;;;;;3.00;0.80;;;22.30;99.90;;;;;;4990245;28;20207;-85
2023/04/05 07:07:32;;;;;;;5.38;0.80;;;22.20;99.90;;;;;;4997396;28;20192;-83
2023/04/05 07:10:03;;;;;;;4.45;0.90;;;22.10;99.90;;;;;;4996853;28;20721;-85
2023/04/05 07:12:35;;;;;;;6.35;1.00;;;22.10;99.90;;;;;;4990390;28;20199;-83
2023/04/05 07:15:07;;;;;;;2.55;0.77;;;22.10;99.90;;;;;;4978126;28;20203;-80
2023/04/05 07:17:38;;;;;;;4.10;0.70;;;22.10;99.90;;;;;;4988323;28;20559;-84
2023/04/05 07:20:12;;;;;;;3.17;0.70;;;22.00;99.90;;;;;;4996922;28;20662;-83
2023/04/05 07:22:43;;;;;;;2.45;0.65;;;22.00;99.90;;;;;;4997071;28;20682;-85
2023/04/05 07:25:14;;;;;;;4.93;0.80;;;22.00;99.90;;;;;;4995340;28;20196;-79
2023/04/05 07:27:45;;;;;;;3.00;0.80;;;21.90;99.90;;;;;;4985694;28;20191;-84
2023/04/05 07:30:17;;;;;;;3.42;0.73;;;21.90;99.90;;;;;;4997032;28;20195;-83
2023/04/05 07:32:48;;;;;;;4.40;0.90;;;21.90;99.90;;;;;;4994271;28;20206;-84
2023/04/05 07:35:21;;;;;;;2.50;0.63;;;21.80;99.90;;;;;;4997387;28;20203;-82
2023/04/05 07:37:52;;;;;;;5.03;0.90;;;21.80;99.90;;;;;;4997093;28;20206;-82
2023/04/05 07:40:23;;;;;;;3.47;0.60;;;21.70;99.90;;;;;;4994013;28;20195;-82
2023/04/05 07:42:54;;;;;;;3.53;0.65;;;21.70;99.90;;;;;;4976927;28;20565;-85
2023/04/05 07:45:26;;;;;;;4.57;0.60;;;21.60;99.90;;;;;;4987305;28;20191;-84
2023/04/05 07:47:57;;;;;;;5.85;0.73;;;21.60;99.90;;;;;;4991630;28;20274;-85
2023/04/05 07:50:30;;;;;;;2.60;0.73;;;21.50;99.90;;;;;;4983728;28;20239;-84
2023/04/05 07:53:01;;;;;;;3.50;0.80;;;21.50;99.90;;;;;;4995816;28;20199;-84
2023/04/05 07:55:32;;;;;;;3.30;0.80;;;21.40;99.90;;;;;;4994843;28;20198;-84
2023/04/05 07:58:03;;;;;;;3.10;0.82;;;21.40;99.90;;;;;;4994294;28;20207;-79
2023/04/05 08:00:35;;;;;;;3.78;0.90;;;21.40;99.90;;;;;;4986312;28;20210;-84
2023/04/05 08:03:06;;;;;;;2.97;0.68;;;21.30;99.90;;;;;;4995438;28;20232;-83
2023/04/05 08:05:40;;;;;;;3.65;0.80;;;21.30;99.90;;;;;;4991356;28;21416;-80
2023/04/05 08:08:20;;;;;;;3.67;0.90;;;21.20;99.90;;;;;;4991018;28;20206;-82
2023/04/05 08:10:51;;;;;;;7.82;1.20;;;21.20;99.90;;;;;;4994063;28;20767;-82
2023/04/05 08:13:22;;;;;;;2.90;0.73;;;21.20;99.90;;;;;;4992196;28;20698;-83
2023/04/05 08:15:53;;;;;;;5.03;1.10;;;21.10;99.90;;;;;;4988764;28;20208;-82
2023/04/05 08:18:24;;;;;;;3.83;1.20;;;21.10;99.90;;;;;;4992806;28;20195;-82
2023/04/05 08:20:57;;;;;;;4.53;1.10;;;21.10;99.90;;;;;;4995222;28;20199;-80
2023/04/05 08:23:28;;;;;;;5.75;1.20;;;21.00;99.90;;;;;;4986326;28;20212;-79
2023/04/05 08:26:00;;;;;;;5.00;1.10;;;21.00;99.90;;;;;;4990256;28;20206;-83
2023/04/05 08:28:31;;;;;;;3.15;0.90;;;21.00;99.90;;;;;;4995477;28;20195;-81
2023/04/05 08:31:02;;;;;;;4.75;1.20;;;20.90;99.90;;;;;;4991875;28;20199;-80
2023/04/05 08:33:34;;;;;;;4.28;1.40;;;20.90;99.90;;;;;;4987635;28;20211;-80
2023/04/05 08:36:11;;;;;;;5.95;1.50;;;20.80;99.90;;;;;;4992944;28;20231;-82
2023/04/05 08:38:42;;;;;;;4.13;1.45;;;20.80;99.90;;;;;;4991662;28;20678;-82
2023/04/05 08:41:19;;;;;;;5.57;1.48;;;20.80;99.90;;;;;;4987140;28;20579;-83
2023/04/05 08:44:01;;;;;;;5.93;1.25;;;20.80;99.90;;;;;;4991190;28;20222;-84
2023/04/05 08:46:33;;;;;;;4.70;1.20;;;20.80;99.90;;;;;;4986532;28;20204;-84
2023/04/05 08:49:10;;;;;;;2.33;1.00;;;20.80;99.90;;;;;;4993464;28;20289;-84
2023/04/05 08:51:43;;;;;;;2.75;1.20;;;20.70;99.90;;;;;;4994526;28;20208;-83
2023/04/05 08:54:14;;;;;;;6.13;1.30;;;20.70;99.90;;;;;;4993929;28;20211;-81
2023/04/05 08:56:48;;;;;;;4.72;1.20;;;20.70;99.90;;;;;;4991413;28;20207;-83
2023/04/05 08:59:21;;;;;;;5.22;1.23;;;20.70;99.90;;;;;;4990028;28;20552;-83
2023/04/05 09:01:53;;;;;;;5.03;1.30;;;20.60;99.90;;;;;;4989096;28;20211;-82
2023/04/05 09:04:26;;;;;;;3.47;1.42;;;20.60;99.90;;;;;;4984997;28;20195;-82
2023/04/05 09:07:00;;;;;;;5.15;1.83;;;20.60;99.90;;;;;;4992487;28;20196;-83
2023/04/05 09:09:35;;;;;;;3.70;1.58;;;20.50;99.90;;;;;;4991382;28;20199;-83
2023/04/05 09:12:07;;;;;;;5.05;1.95;;;20.50;99.90;;;;;;4993108;28;20617;-82
2023/04/05 09:14:40;;;;;;;5.32;2.00;;;20.40;99.90;;;;;;4991967;28;20206;-82
2023/04/05 09:17:11;;;;;;;3.35;1.80;;;20.40;99.90;;;;;;4990510;28;20208;-81
2023/04/05 09:19:42;;;;;;;4.88;1.75;;;20.40;99.90;;;;;;4987646;28;20192;-79
2023/04/05 09:22:17;;;;;;;4.65;1.70;;;20.40;99.90;;;;;;4992703;28;20717;-82
2023/04/05 09:24:48;;;;;;;4.68;1.70;;;20.30;99.90;;;;;;4981400;28;20697;-83
2023/04/05 09:27:20;;;;;;;4.32;1.55;;;20.30;99.90;;;;;;4993783;28;20207;-82
2023/04/05 09:29:52;;;;;;;4.57;1.55;;;20.30;99.90;;;;;;4992652;28;20199;-83
2023/04/05 09:32:28;;;;;;;3.88;1.40;;;20.30;99.90;;;;;;4989417;28;20287;-82
2023/04/05 09:35:03;;;;;;;3.67;1.40;;;20.20;99.90;;;;;;4989355;28;20203;-83
2023/04/05 09:37:36;;;;;;;3.08;1.13;;;20.20;99.90;;;;;;4991643;28;20309;-83
2023/04/05 09:40:09;;;;;;;2.63;1.10;;;20.20;99.90;;;;;;4994452;28;20225;-83
2023/04/05 09:42:47;;;;;;;2.08;1.00;;;20.20;99.90;;;;;;4994061;28;20277;-83
2023/04/05 09:45:19;;;;;;;3.70;1.20;;;20.20;99.90;;;;;;4993152;28;20202;-79
2023/04/05 09:47:58;;;;;;;5.80;1.23;;;20.20;99.90;;;;;;4991873;28;20251;-82
2023/04/05 09:50:29;;;;;;;4.78;1.40;;;20.20;99.90;;;;;;4991254;28;20309;-83
2023/04/05 09:53:14;;;;;;;2.25;1.05;;;20.10;99.90;;;;;;4992962;28;20199;-83
2023/04/05 09:55:46;;;;;;;5.78;1.30;;;20.10;99.90;;;;;;4980900;28;20199;-80
2023/04/05 09:58:21;;;;;;;6.32;1.40;;;20.10;99.90;;;;;;4991124;28;20200;-80
2023/04/05 10:00:53;;;;;;;2.25;1.00;;;20.10;99.90;;;;;;4987502;28;20274;-81
2023/04/05 10:03:26;;;;;;;3.60;1.35;;;20.00;99.90;;;;;;4992746;28;20278;-79
2023/04/05 10:05:59;;;;;;;4.60;1.35;;;19.90;99.90;;;;;;4993411;28;20254;-80
2023/04/05 10:08:32;;;;;;;7.43;1.90;;;19.90;99.90;;;;;;4993696;28;20201;-78
2023/04/05 10:11:05;;;;;;;3.33;1.30;;;19.90;99.90;;;;;;4984492;28;20208;-80
2023/04/05 10:13:37;;;;;;;4.07;1.70;;;19.90;99.90;;;;;;4976227;28;20199;-82
2023/04/05 10:16:13;;;;;;;3.58;2.00;;;19.90;99.90;;;;;;4987851;28;20210;-80
2023/04/05 10:18:49;;;;;;;4.72;1.40;;;19.80;99.90;;;;;;4984599;28;20200;-82
2023/04/05 10:21:23;;;;;;;5.03;1.70;;;19.80;99.90;;;;;;4982095;28;20203;-80
2023/04/05 10:24:03;;;;;;;3.95;1.30;;;19.80;99.90;;;;;;4983260;28;20567;-83
2023/04/05 10:26:47;;;;;;;2.75;1.30;;;19.80;99.90;;;;;;4993369;28;20199;-84
2023/04/05 10:29:32;;;;;;;3.00;1.08;;;19.80;99.90;;;;;;4977265;28;20196;-78
2023/04/05 10:32:12;;;;;;;4.03;1.13;;;19.70;99.90;;;;;;4980417;28;20192;-79
2023/04/05 10:34:48;;;;;;;3.17;0.85;;;19.70;99.90;;;;;;4992117;28;20200;-79
2023/04/05 10:37:30;;;;;;;5.20;1.33;;;19.70;99.90;;;;;;4991022;28;20205;-80
2023/04/05 10:40:10;;;;;;;2.72;0.95;;;19.70;99.90;;;;;;4980724;28;20210;-78
2023/04/05 10:42:45;;;;;;;3.63;1.20;;;19.70;99.90;;;;;;4981486;28;20698;-79
2023/04/05 10:45:18;;;;;;;3.88;1.20;;;19.70;99.90;;;;;;4974640;28;20203;-82
2023/04/05 10:47:54;;;;;;;4.82;1.33;;;19.70;99.90;;;;;;4974232;28;20201;-82
2023/04/05 10:50:26;;;;;;;4.00;1.23;;;19.60;99.90;;;;;;4978046;28;20223;-83
2023/04/05 10:52:59;;;;;;;3.47;1.10;;;19.60;99.90;;;;;;4990177;28;20192;-82
2023/04/05 10:55:33;;;;;;;3.05;1.30;;;19.60;99.90;;;;;;4974281;28;20224;-81
2023/04/05 10:58:05;;;;;;;4.05;1.17;;;19.60;99.90;;;;;;4980132;28;20207;-81
2023/04/05 11:00:36;;;;;;;2.70;1.27;;;19.50;99.90;;;;;;4988074;28;20570;-80
2023/04/05 11:03:08;;;;;;;2.83;1.30;;;19.50;99.90;;;;;;4990554;28;20253;-82
2023/04/05 11:05:40;;;;;;;4.05;0.90;;;19.50;99.90;;;;;;4993794;28;20222;-79
2023/04/05 11:08:14;;;;;;;4.25;1.20;;;19.50;99.90;;;;;;4993812;28;20191;-81
2023/04/05 11:10:55;;;;;;;3.05;1.27;;;19.50;99.90;;;;;;4993869;28;20195;-82
2023/04/05 11:13:53;;;;;;;4.70;1.40;;;19.40;99.90;;;;;;4980336;28;20563;-79
2023/04/05 11:16:25;;;;;;;4.85;1.30;;;19.40;99.90;;;;;;4980709;28;20640;-79
2023/04/05 11:18:56;;;;;;;5.13;1.30;;;19.40;99.90;;;;;;4978291;28;20203;-79
2023/04/05 11:21:27;;;;;;;3.08;1.23;;;19.40;99.90;;;;;;4975039;28;20208;-82
2023/04/05 11:24:10;;;;;;;4.55;1.40;;;19.30;99.90;;;;;;4979016;28;20220;-83
2023/04/05 11:27:00;;;;;;;4.22;1.20;;;19.30;99.90;;;;;;4992825;28;20273;-80
2023/04/05 11:29:53;;;;;;;3.78;1.17;;;19.30;99.90;;;;;;4993355;28;20258;-83
2023/04/05 11:32:25;;;;;;;4.18;1.30;;;19.30;99.90;;;;;;4990068;28;20882;-82
2023/04/05 11:35:03;;;;;;;5.35;1.33;;;19.30;99.90;;;;;;4987061;28;20196;-80
2023/04/05 11:38:11;;;;;;;3.35;1.40;;;19.30;99.90;;;;;;4996866;28;20192;-80
2023/04/05 11:40:42;;;;;;;4.68;1.75;;;19.20;99.90;;;;;;4991253;28;20258;-81
2023/04/05 11:43:15;;;;;;;8.50;1.80;;;19.20;99.90;;;;;;4992031;28;20228;-79
2023/04/05 11:45:47;;;;;;;4.60;1.50;;;19.10;99.90;;;;;;4989865;28;20196;-82
2023/04/05 11:48:19;;;;;;;2.90;1.30;;;19.10;99.90;;;;;;4985371;28;20207;-81
2023/04/05 11:50:52;;;;;;;3.95;1.30;;;19.10;99.90;;;;;;4988265;28;20199;-82
2023/04/05 11:53:23;;;;;;;5.07;1.40;;;19.10;99.90;;;;;;4981730;28;20208;-82
2023/04/05 11:55:55;;;;;;;3.53;1.23;;;19.10;99.90;;;;;;4977503;28;20192;-80
2023/04/05 11:58:29;;;;;;;3.60;1.25;;;19.10;99.90;;;;;;4984101;28;20199;-82
2023/04/05 12:01:04;;;;;;;4.32;1.17;;;19.10;99.90;;;;;;4987587;28;20203;-80
2023/04/05 12:03:35;;;;;;;4.60;1.40;;;19.10;99.90;;;;;;4994891;28;20250;-83
2023/04/05 12:06:07;;;;;;;5.07;1.30;;;19.10;99.90;;;;;;4995550;28;20211;-82
2023/04/05 12:08:48;;;;;;;5.30;1.73;;;19.10;99.90;;;;;;4995434;28;20227;-82
2023/04/05 12:11:26;;;;;;;4.03;1.60;;;19.10;99.90;;;;;;4984578;28;20204;-81
2023/04/05 12:14:00;;;;;;;5.22;1.58;;;19.10;99.90;;;;;;4983026;28;20204;-81
2023/04/05 12:16:32;;;;;;;6.32;1.90;;;19.10;99.90;;;;;;4979658;28;20655;-82
2023/04/05 12:19:03;;;;;;;5.15;1.63;;;19.10;99.90;;;;;;4977018;28;20197;-82
2023/04/05 12:21:38;;;;;;;5.05;1.75;;;19.00;99.90;;;;;;4981649;28;20207;-81
2023/04/05 12:24:10;;;;;;;4.25;1.70;;;19.00;99.90;;;;;;4983973;28;20223;-80
2023/04/05 12:26:41;;;;;;;4.50;1.90;;;19.00;99.90;;;;;;4976550;28;20200;-80
2023/04/05 12:29:14;;;;;;;6.20;2.10;;;19.00;99.90;;;;;;4979109;28;20567;-81
2023/04/05 12:31:45;;;;;;;7.97;2.10;;;19.00;99.90;;;;;;4994224;28;20199;-83
2023/04/05 12:34:17;;;;;;;5.15;2.03;;;18.90;99.90;;;;;;4994541;28;20192;-82
2023/04/05 12:36:49;;;;;;;6.82;2.17;;;18.90;99.90;;;;;;4980505;28;20215;-82
2023/04/05 12:39:20;;;;;;;6.32;1.83;;;18.90;99.90;;;;;;4976027;28;20189;-81
2023/04/05 12:42:01;;;;;;;6.28;2.30;;;18.90;99.90;;;;;;4989275;28;20211;-82
2023/04/05 12:44:34;;;;;;;3.80;1.85;;;18.90;99.90;;;;;;4994378;28;20238;-82
2023/04/05 12:47:09;;;;;;;4.93;2.17;;;19.00;99.90;;;;;;4984479;28;20208;-82
2023/04/05 12:49:41;;;;;;;3.50;2.00;;;19.00;99.90;;;;;;4994373;28;20706;-82
2023/04/05 12:52:12;;;;;;;5.30;1.92;;;19.00;99.90;;;;;;4988868;28;20204;-83
2023/04/05 12:54:43;;;;;;;6.40;2.20;;;19.00;99.90;;;;;;4980738;28;20200;-82
2023/04/05 12:57:14;;;;;;;7.35;2.38;;;19.00;99.90;;;;;;4976536;28;20579;-82
2023/04/05 12:59:47;;;;;;;5.32;2.25;;;19.00;99.90;;;;;;4987320;28;20200;-82
2023/04/05 13:02:18;;;;;;;7.15;2.15;;;19.00;99.90;;;;;;4990781;28;20235;-80
2023/04/05 13:04:49;;;;;;;4.13;2.10;;;19.00;99.90;;;;;;4995292;28;20569;-83
2023/04/05 13:07:20;;;;;;;6.72;2.33;;;19.00;99.90;;;;;;4985785;28;20267;-82
2023/04/05 13:09:51;;;;;;;5.20;2.13;;;19.00;99.90;;;;;;4976374;28;20629;-80
2023/04/05 13:12:22;;;;;;;4.80;1.95;;;19.00;99.90;;;;;;4976414;28;20655;-82
2023/04/05 13:14:55;;;;;;;7.00;2.17;;;18.90;99.90;;;;;;4975796;28;20648;-83
2023/04/05 13:17:26;;;;;;;5.15;2.10;;;18.90;99.90;;;;;;4975486;28;20188;-83
2023/04/05 13:19:57;;;;;;;5.70;2.30;;;18.90;99.90;;;;;;4985530;28;20199;-79